Time;durP1;ratioP1;P1;durP2;ratioP2;P2;SDS_P1;SDS_P2;PMS_P1;PMS_P2;Temp;Humidity;BMP_temperature;BMP_pressure;BME280_temperature;BME280_humidity;BME280_pressure;Samples;Min_cycle;Max_cycle;Signal;HPM_P1;HPM_P2
2022/10/14 00:01:26;;;;;;;15.27;13.70;;;15.60;99.90;;;;;;5117127;28;20199;-78
2022/10/14 00:03:53;;;;;;;14.73;13.23;;;15.60;99.90;;;;;;5116774;28;20175;-77
2022/10/14 00:06:28;;;;;;;14.97;13.33;;;15.70;99.90;;;;;;5117333;28;20168;-77
2022/10/14 00:08:54;;;;;;;16.50;13.10;;;15.70;99.90;;;;;;5117147;28;20171;-78
2022/10/14 00:11:23;;;;;;;13.73;12.43;;;15.60;99.90;;;;;;5116977;28;20238;-77
2022/10/14 00:13:53;;;;;;;15.53;13.93;;;15.60;99.90;;;;;;5117064;28;20230;-77
2022/10/14 00:16:21;;;;;;;15.17;13.73;;;15.70;99.90;;;;;;5117280;28;20258;-77
2022/10/14 00:18:47;;;;;;;14.43;12.97;;;15.70;99.90;;;;;;5116792;28;20209;-77
2022/10/14 00:21:13;;;;;;;13.87;12.53;;;15.70;99.90;;;;;;5115867;28;20263;-76
2022/10/14 00:23:39;;;;;;;13.60;12.20;;;15.80;99.90;;;;;;5117067;28;20171;-78
2022/10/14 00:26:05;;;;;;;14.00;12.60;;;15.80;99.90;;;;;;5117002;28;20182;-76
2022/10/14 00:28:31;;;;;;;14.57;13.07;;;15.80;99.90;;;;;;5116845;28;20171;-76
2022/10/14 00:31:01;;;;;;;13.40;12.10;;;15.80;99.90;;;;;;5098516;28;20238;-78
2022/10/14 00:33:27;;;;;;;14.50;13.00;;;15.80;99.90;;;;;;5116408;28;20333;-77
2022/10/14 00:36:03;;;;;;;14.17;12.77;;;15.70;99.90;;;;;;5116609;27;20179;-77
2022/10/14 00:38:28;;;;;;;14.13;12.67;;;15.80;99.90;;;;;;5115832;28;20211;-77
2022/10/14 00:40:55;;;;;;;14.50;13.03;;;15.70;99.90;;;;;;5116425;28;20195;-77
2022/10/14 00:43:22;;;;;;;13.97;12.53;;;15.70;99.90;;;;;;5116889;28;20262;-77
2022/10/14 00:45:48;;;;;;;14.77;13.07;;;15.70;99.90;;;;;;5116714;28;20250;-76
2022/10/14 00:48:15;;;;;;;14.73;12.87;;;15.80;99.90;;;;;;5116180;28;20304;-76
2022/10/14 00:50:44;;;;;;;13.90;12.60;;;15.80;99.90;;;;;;5116223;28;20179;-76
2022/10/14 00:53:12;;;;;;;14.50;11.97;;;15.80;99.90;;;;;;5116456;28;20195;-75
2022/10/14 00:55:40;;;;;;;13.60;12.17;;;15.80;99.90;;;;;;5114997;28;20623;-78
2022/10/14 00:58:06;;;;;;;14.13;12.37;;;15.80;99.90;;;;;;5116333;28;20267;-76
2022/10/14 01:00:32;;;;;;;13.90;12.60;;;15.80;99.90;;;;;;5115118;28;20197;-77
2022/10/14 01:02:57;;;;;;;13.40;12.10;;;15.80;99.90;;;;;;5115866;28;20230;-77
2022/10/14 01:05:30;;;;;;;13.73;12.30;;;15.80;99.90;;;;;;5116255;28;20244;-76
2022/10/14 01:08:10;;;;;;;12.57;11.40;;;15.60;99.90;;;;;;5116259;28;20174;-76
2022/10/14 01:10:46;;;;;;;13.30;12.10;;;15.60;99.90;;;;;;5114697;28;20627;-77
2022/10/14 01:13:32;;;;;;;13.17;11.87;;;15.60;99.90;;;;;;5115816;28;20211;-77
2022/10/14 01:16:24;;;;;;;12.90;11.70;;;15.60;99.90;;;;;;5116072;28;20198;-77
2022/10/14 01:19:11;;;;;;;12.67;11.40;;;15.60;99.90;;;;;;5116001;28;20172;-78
2022/10/14 01:21:59;;;;;;;12.47;11.17;;;15.60;99.90;;;;;;5115651;28;20202;-77
2022/10/14 01:24:40;;;;;;;13.70;12.17;;;15.60;99.90;;;;;;5114546;28;20250;-77
2022/10/14 01:27:17;;;;;;;14.07;11.87;;;15.70;99.90;;;;;;5114568;28;20186;-76
2022/10/14 01:30:01;;;;;;;13.30;12.00;;;15.60;99.90;;;;;;5114305;28;20173;-77
2022/10/14 01:32:44;;;;;;;15.07;13.47;;;15.60;99.90;;;;;;5094670;28;20207;-75
2022/10/14 01:35:20;;;;;;;13.60;12.20;;;15.70;99.90;;;;;;5095173;28;20217;-77
2022/10/14 01:37:54;;;;;;;14.53;12.13;;;15.70;99.90;;;;;;5095029;28;20225;-77
2022/10/14 01:40:34;;;;;;;13.80;11.77;;;15.70;99.90;;;;;;5095202;28;20164;-77
2022/10/14 01:43:01;;;;;;;13.53;12.23;;;15.80;99.90;;;;;;5095096;28;20187;-77
2022/10/14 01:45:29;;;;;;;14.27;12.77;;;15.80;99.90;;;;;;5094849;28;20180;-77
2022/10/14 01:47:57;;;;;;;14.47;13.03;;;15.80;99.90;;;;;;5095003;28;20168;-77
2022/10/14 01:50:26;;;;;;;15.27;12.77;;;15.70;99.90;;;;;;5088964;28;20275;-77
2022/10/14 01:53:00;;;;;;;13.97;12.57;;;15.70;99.90;;;;;;5093369;28;20687;-77
2022/10/14 01:55:30;;;;;;;14.83;13.17;;;15.60;99.90;;;;;;5095082;28;20160;-77
2022/10/14 01:57:57;;;;;;;14.60;13.13;;;15.70;99.90;;;;;;5094733;28;20204;-77
2022/10/14 02:00:23;;;;;;;13.60;12.23;;;15.70;99.90;;;;;;5094434;28;20289;-77
2022/10/14 02:02:49;;;;;;;14.57;13.07;;;15.70;99.90;;;;;;5093358;28;20202;-76
2022/10/14 02:05:27;;;;;;;14.83;12.80;;;15.60;99.90;;;;;;5094606;28;20160;-77
2022/10/14 02:08:32;;;;;;;13.73;12.33;;;15.60;99.90;;;;;;5093323;28;20629;-76
2022/10/14 02:11:15;;;;;;;15.13;13.33;;;15.70;99.90;;;;;;5094543;28;20168;-77
2022/10/14 02:13:59;;;;;;;16.47;14.33;;;15.50;99.90;;;;;;5094163;28;20260;-77
2022/10/14 02:16:41;;;;;;;16.63;14.00;;;15.50;99.90;;;;;;5094091;28;20221;-77
2022/10/14 02:19:26;;;;;;;16.10;12.73;;;15.60;99.90;;;;;;5094286;28;20179;-77
2022/10/14 02:22:23;;;;;;;15.00;13.50;;;15.70;99.90;;;;;;5093813;28;20183;-77
2022/10/14 02:24:54;;;;;;;15.97;13.43;;;15.70;99.90;;;;;;5094259;28;20631;-74
2022/10/14 02:27:24;;;;;;;15.00;12.83;;;15.70;99.90;;;;;;5094150;28;20694;-77
2022/10/14 02:29:51;;;;;;;14.10;12.23;;;15.70;99.90;;;;;;5093851;28;20631;-75
2022/10/14 02:32:19;;;;;;;14.57;12.97;;;15.70;99.90;;;;;;5133236;27;20226;-77
2022/10/14 02:34:50;;;;;;;14.20;12.70;;;15.70;99.90;;;;;;5135059;27;20167;-75
2022/10/14 02:37:16;;;;;;;15.23;13.50;;;15.70;99.90;;;;;;5134885;27;20525;-77
2022/10/14 02:39:56;;;;;;;16.30;13.30;;;15.70;99.90;;;;;;5134744;27;20619;-77
2022/10/14 02:42:22;;;;;;;14.00;12.70;;;15.70;99.90;;;;;;5134888;27;20169;-77
2022/10/14 02:44:56;;;;;;;14.33;12.83;;;15.80;99.90;;;;;;5134538;27;20159;-75
2022/10/14 02:47:23;;;;;;;15.07;12.30;;;15.80;99.90;;;;;;5134757;27;20195;-75
2022/10/14 02:49:49;;;;;;;13.77;12.33;;;15.80;99.90;;;;;;5134685;27;20174;-75
2022/10/14 02:52:15;;;;;;;13.53;12.23;;;15.70;99.90;;;;;;5134390;27;20195;-75
2022/10/14 02:54:41;;;;;;;13.60;12.30;;;15.80;99.90;;;;;;5134588;27;20681;-77
2022/10/14 02:57:06;;;;;;;13.30;12.00;;;15.80;99.90;;;;;;5134439;27;20253;-77
2022/10/14 02:59:32;;;;;;;13.50;11.90;;;15.70;99.90;;;;;;5133686;27;20167;-77
2022/10/14 03:01:57;;;;;;;12.63;11.40;;;15.70;99.90;;;;;;5114818;27;20170;-76
2022/10/14 03:04:23;;;;;;;12.23;10.93;;;15.70;99.90;;;;;;5115839;27;20614;-77
2022/10/14 03:06:49;;;;;;;13.20;11.57;;;15.70;99.90;;;;;;5134543;27;20211;-74
2022/10/14 03:09:14;;;;;;;13.93;12.03;;;15.70;99.90;;;;;;5116135;27;20685;-77
2022/10/14 03:11:40;;;;;;;13.53;11.93;;;15.80;99.90;;;;;;5115894;27;20171;-77
2022/10/14 03:14:05;;;;;;;13.50;12.17;;;15.70;99.90;;;;;;5133726;27;20210;-76
2022/10/14 03:16:31;;;;;;;14.20;12.50;;;15.70;99.90;;;;;;5134141;27;20189;-77
2022/10/14 03:18:57;;;;;;;14.47;13.03;;;15.60;99.90;;;;;;5134151;27;20173;-76
2022/10/14 03:21:22;;;;;;;14.43;12.93;;;15.60;99.90;;;;;;5133700;27;20163;-76
2022/10/14 03:23:49;;;;;;;15.63;14.00;;;15.60;99.90;;;;;;5115926;28;20615;-76
2022/10/14 03:26:15;;;;;;;18.33;13.83;;;15.70;99.90;;;;;;5115685;28;20295;-76
2022/10/14 03:28:40;;;;;;;15.27;13.20;;;15.80;99.90;;;;;;5133695;28;20249;-76
2022/10/14 03:31:06;;;;;;;15.07;12.90;;;15.80;99.90;;;;;;5133590;28;20657;-77
2022/10/14 03:33:32;;;;;;;13.83;12.40;;;15.80;99.90;;;;;;5133855;28;20962;-76
2022/10/14 03:35:57;;;;;;;14.17;12.67;;;15.70;99.90;;;;;;5134101;28;20303;-76
2022/10/14 03:38:24;;;;;;;14.37;12.83;;;15.70;99.90;;;;;;5134004;28;20502;-76
2022/10/14 03:40:50;;;;;;;14.07;12.37;;;15.80;99.90;;;;;;5133915;28;20249;-77
2022/10/14 03:43:15;;;;;;;12.07;10.87;;;15.90;99.90;;;;;;5115249;28;20733;-76
2022/10/14 03:45:43;;;;;;;14.30;11.50;;;15.90;99.90;;;;;;5133843;28;20189;-76
2022/10/14 03:48:09;;;;;;;13.67;10.97;;;15.80;99.90;;;;;;5133505;28;20167;-76
2022/10/14 03:50:34;;;;;;;13.43;11.20;;;15.80;99.90;;;;;;5133590;28;20171;-76
2022/10/14 03:53:00;;;;;;;12.83;11.07;;;15.70;99.90;;;;;;5133671;28;20244;-76
2022/10/14 03:55:26;;;;;;;12.97;11.67;;;15.80;99.90;;;;;;5133873;28;20177;-76
2022/10/14 03:57:51;;;;;;;13.67;11.03;;;15.70;99.90;;;;;;5132984;28;20177;-76
2022/10/14 04:00:17;;;;;;;14.33;11.60;;;15.70;99.90;;;;;;5114963;28;20186;-76
2022/10/14 04:02:43;;;;;;;13.43;11.43;;;15.70;99.90;;;;;;5133889;28;20209;-76
2022/10/14 04:05:09;;;;;;;13.80;12.07;;;15.70;99.90;;;;;;5133157;28;20715;-76
2022/10/14 04:07:35;;;;;;;13.33;11.07;;;15.60;99.90;;;;;;5133573;28;20245;-76
2022/10/14 04:10:00;;;;;;;13.67;12.00;;;15.50;99.90;;;;;;5133435;28;20582;-77
2022/10/14 04:12:26;;;;;;;14.23;11.73;;;15.50;99.90;;;;;;5132667;28;20265;-76
2022/10/14 04:14:55;;;;;;;15.60;12.10;;;15.50;99.90;;;;;;5117308;27;20190;-75
2022/10/14 04:17:21;;;;;;;14.60;12.67;;;15.60;99.90;;;;;;5137604;27;20162;-77
2022/10/14 04:19:46;;;;;;;14.70;12.73;;;15.70;99.90;;;;;;5118887;27;20202;-77
2022/10/14 04:22:12;;;;;;;17.00;13.10;;;15.80;99.90;;;;;;5118907;27;20517;-77
2022/10/14 04:24:38;;;;;;;18.17;14.43;;;15.70;99.90;;;;;;5118631;27;20178;-77
2022/10/14 04:27:03;;;;;;;13.67;12.27;;;15.70;99.90;;;;;;5136513;27;20174;-77
2022/10/14 04:29:29;;;;;;;13.50;12.20;;;15.60;99.90;;;;;;5137185;27;20532;-77
2022/10/14 04:31:54;;;;;;;13.63;11.87;;;15.60;99.90;;;;;;5136750;27;20234;-77
2022/10/14 04:34:20;;;;;;;13.27;11.90;;;15.50;99.90;;;;;;5136768;27;20231;-77
2022/10/14 04:36:46;;;;;;;13.10;11.80;;;15.60;99.90;;;;;;5118426;27;20278;-77
2022/10/14 04:39:11;;;;;;;15.20;11.70;;;15.60;99.90;;;;;;5136986;27;20175;-78
2022/10/14 04:41:37;;;;;;;14.50;11.73;;;15.60;99.90;;;;;;5135929;27;20182;-76
2022/10/14 04:44:03;;;;;;;12.70;11.27;;;15.60;99.90;;;;;;5118272;27;20611;-79
2022/10/14 04:46:30;;;;;;;14.47;12.23;;;15.60;99.90;;;;;;5136641;27;20209;-80
2022/10/14 04:48:56;;;;;;;13.07;11.77;;;15.60;99.90;;;;;;5118386;27;20174;-80
2022/10/14 04:51:21;;;;;;;15.17;12.60;;;15.60;99.90;;;;;;5136340;27;20243;-79
2022/10/14 04:53:47;;;;;;;15.23;12.43;;;15.60;99.90;;;;;;5135971;27;20206;-80
2022/10/14 04:56:12;;;;;;;16.83;11.90;;;15.60;99.90;;;;;;5118024;27;20171;-80
2022/10/14 04:58:38;;;;;;;13.57;11.40;;;15.60;99.90;;;;;;5118005;27;20739;-80
2022/10/14 05:01:04;;;;;;;13.60;11.73;;;15.70;99.90;;;;;;5136272;27;20194;-80
2022/10/14 05:03:29;;;;;;;14.77;12.30;;;15.70;99.90;;;;;;5136147;27;20655;-80
2022/10/14 05:05:55;;;;;;;14.70;11.60;;;15.70;99.90;;;;;;5136265;27;20633;-79
2022/10/14 05:08:21;;;;;;;15.07;11.47;;;15.60;99.90;;;;;;5135839;27;20166;-79
2022/10/14 05:10:47;;;;;;;14.27;11.30;;;15.60;99.90;;;;;;5135528;27;20697;-79
2022/10/14 05:13:13;;;;;;;14.33;12.03;;;15.60;99.90;;;;;;5135385;27;20218;-78
2022/10/14 05:15:38;;;;;;;15.33;11.43;;;15.60;99.90;;;;;;5117354;27;20543;-80
2022/10/14 05:18:04;;;;;;;14.50;11.60;;;15.60;99.90;;;;;;5135439;27;20166;-79
2022/10/14 05:20:29;;;;;;;15.73;11.17;;;15.60;99.90;;;;;;5135643;27;20166;-79
2022/10/14 05:22:55;;;;;;;14.70;10.97;;;15.60;99.90;;;;;;5116681;27;20196;-79
2022/10/14 05:25:21;;;;;;;14.87;11.23;;;15.40;99.90;;;;;;5116321;27;20179;-79
2022/10/14 05:27:46;;;;;;;14.17;11.40;;;15.50;99.90;;;;;;5116929;27;20181;-79
2022/10/14 05:30:12;;;;;;;15.17;11.37;;;15.50;99.90;;;;;;5116310;27;20622;-79
2022/10/14 05:32:38;;;;;;;14.77;10.73;;;15.60;99.90;;;;;;5135269;27;20225;-80
2022/10/14 05:35:04;;;;;;;13.33;10.70;;;15.60;99.90;;;;;;5135071;27;20166;-79
2022/10/14 05:37:30;;;;;;;13.87;11.07;;;15.40;99.90;;;;;;5135249;27;20169;-78
2022/10/14 05:39:55;;;;;;;12.90;10.57;;;15.40;99.90;;;;;;5135259;27;20511;-78
2022/10/14 05:42:21;;;;;;;13.13;10.33;;;15.40;99.90;;;;;;5134652;27;20185;-80
2022/10/14 05:44:46;;;;;;;14.73;11.33;;;15.40;99.90;;;;;;5116038;27;20174;-77
2022/10/14 05:47:12;;;;;;;16.17;11.23;;;15.40;99.90;;;;;;5116661;27;20658;-79
2022/10/14 05:49:38;;;;;;;13.73;10.67;;;15.40;99.90;;;;;;5134572;27;20167;-79
2022/10/14 05:52:04;;;;;;;13.70;10.13;;;15.40;99.90;;;;;;5133953;27;20198;-77
2022/10/14 05:54:29;;;;;;;11.20;9.73;;;15.30;99.90;;;;;;5134738;27;20201;-76
2022/10/14 05:56:55;;;;;;;11.27;9.40;;;15.30;99.90;;;;;;5134424;27;20634;-79
2022/10/14 05:59:21;;;;;;;14.53;10.07;;;15.20;99.90;;;;;;5115795;27;20167;-79
2022/10/14 06:01:46;;;;;;;12.53;9.83;;;15.20;99.90;;;;;;5133791;27;20511;-77
2022/10/14 06:04:20;;;;;;;13.27;10.03;;;15.20;99.90;;;;;;5134714;27;20170;-77
2022/10/14 06:06:46;;;;;;;14.53;10.97;;;15.20;99.90;;;;;;5133384;27;20170;-78
2022/10/14 06:09:12;;;;;;;13.57;11.00;;;15.20;99.90;;;;;;5133708;27;20181;-78
2022/10/14 06:11:38;;;;;;;14.17;10.33;;;15.20;99.90;;;;;;5134078;27;20167;-78
2022/10/14 06:14:04;;;;;;;14.53;10.30;;;15.20;99.90;;;;;;5134328;27;20727;-78
2022/10/14 06:16:29;;;;;;;13.13;10.63;;;15.20;99.90;;;;;;5133756;27;20166;-78
2022/10/14 06:18:55;;;;;;;15.13;11.20;;;15.20;99.90;;;;;;5134143;27;20178;-77
2022/10/14 06:21:21;;;;;;;14.43;10.63;;;15.20;99.90;;;;;;5133447;27;20170;-78
2022/10/14 06:23:47;;;;;;;14.40;10.60;;;15.30;99.90;;;;;;5115420;27;20599;-79
2022/10/14 06:26:12;;;;;;;12.70;10.93;;;15.30;99.90;;;;;;5115739;27;20173;-77
2022/10/14 06:28:38;;;;;;;12.50;10.57;;;15.30;99.90;;;;;;5115530;27;20177;-79
2022/10/14 06:31:04;;;;;;;14.67;11.00;;;15.30;99.90;;;;;;5133276;27;20618;-79
2022/10/14 06:33:30;;;;;;;14.53;10.10;;;15.30;99.90;;;;;;5116117;27;20201;-78
2022/10/14 06:35:56;;;;;;;16.17;11.20;;;15.30;99.90;;;;;;5133502;27;20166;-78
2022/10/14 06:38:22;;;;;;;18.83;11.43;;;15.20;99.90;;;;;;5133474;27;20665;-78
2022/10/14 06:40:51;;;;;;;15.43;10.97;;;15.40;99.90;;;;;;5132699;27;20652;-78
2022/10/14 06:43:17;;;;;;;14.23;10.60;;;15.40;99.90;;;;;;5114848;27;20695;-79
2022/10/14 06:45:43;;;;;;;14.17;10.20;;;15.40;99.90;;;;;;5133550;27;20177;-79
2022/10/14 06:48:09;;;;;;;10.97;9.60;;;15.40;99.90;;;;;;5132530;27;20162;-79
2022/10/14 06:50:35;;;;;;;13.90;9.83;;;15.40;99.90;;;;;;5126803;27;20197;-78
2022/10/14 06:53:01;;;;;;;12.43;10.00;;;15.40;99.90;;;;;;5132149;27;20289;-77
2022/10/14 06:55:26;;;;;;;12.80;9.73;;;15.40;99.90;;;;;;5133479;27;20170;-78
2022/10/14 06:57:52;;;;;;;13.83;10.63;;;15.40;99.90;;;;;;5133511;27;20171;-78
2022/10/14 07:00:18;;;;;;;12.97;10.00;;;15.40;99.90;;;;;;5133322;27;20204;-78
2022/10/14 07:02:43;;;;;;;10.80;9.67;;;15.40;99.90;;;;;;5114795;27;20630;-78
2022/10/14 07:05:09;;;;;;;13.30;9.67;;;15.40;99.90;;;;;;5132000;27;20183;-78
2022/10/14 07:07:35;;;;;;;13.63;10.10;;;15.40;99.90;;;;;;5133064;27;20622;-78
2022/10/14 07:10:01;;;;;;;15.13;10.77;;;15.50;99.90;;;;;;5133445;27;20613;-78
2022/10/14 07:12:26;;;;;;;12.23;10.63;;;15.60;99.90;;;;;;5133071;27;20162;-78
2022/10/14 07:14:52;;;;;;;10.90;9.27;;;15.50;99.90;;;;;;5133310;27;20622;-78
2022/10/14 07:17:18;;;;;;;12.77;10.07;;;15.50;99.90;;;;;;5133659;27;20162;-79
2022/10/14 07:19:43;;;;;;;12.47;10.00;;;15.60;99.90;;;;;;5133064;27;20178;-79
2022/10/14 07:22:09;;;;;;;13.03;9.77;;;15.70;99.90;;;;;;5133273;27;20190;-80
2022/10/14 07:24:35;;;;;;;11.43;9.50;;;15.70;99.90;;;;;;5114356;27;20182;-79
2022/10/14 07:27:00;;;;;;;10.00;9.00;;;15.80;99.90;;;;;;5132329;28;20253;-79
2022/10/14 07:29:27;;;;;;;9.70;8.63;;;15.80;99.90;;;;;;5131716;28;20174;-79
2022/10/14 07:31:52;;;;;;;10.37;8.67;;;15.80;99.90;;;;;;5132384;28;20233;-79
2022/10/14 07:34:18;;;;;;;10.83;9.23;;;15.80;99.90;;;;;;5133018;28;20210;-79
2022/10/14 07:36:44;;;;;;;12.13;9.10;;;15.80;99.90;;;;;;5133261;28;20199;-79
2022/10/14 07:39:09;;;;;;;7.80;7.20;;;16.00;99.90;;;;;;5133226;28;20548;-79
2022/10/14 07:41:35;;;;;;;9.33;7.97;;;16.00;99.90;;;;;;5132844;28;20173;-79
2022/10/14 07:44:07;;;;;;;8.40;7.70;;;16.00;99.90;;;;;;5133231;28;20181;-79
2022/10/14 07:46:35;;;;;;;8.67;7.87;;;15.90;99.90;;;;;;5133569;28;20294;-78
2022/10/14 07:49:06;;;;;;;9.27;8.20;;;16.00;99.90;;;;;;5116922;27;20189;-77
2022/10/14 07:51:33;;;;;;;8.20;7.50;;;16.00;99.90;;;;;;5137506;27;20673;-79
2022/10/14 07:54:00;;;;;;;8.80;7.43;;;16.00;99.90;;;;;;5118492;27;20213;-78
2022/10/14 07:56:27;;;;;;;9.03;8.13;;;16.00;99.90;;;;;;5136312;27;20190;-78
2022/10/14 07:58:53;;;;;;;8.10;7.30;;;16.10;99.90;;;;;;5137418;27;20206;-78
2022/10/14 08:01:19;;;;;;;8.97;8.07;;;16.10;99.90;;;;;;5136773;27;20163;-79
2022/10/14 08:03:46;;;;;;;9.47;8.13;;;16.20;99.90;;;;;;5136499;27;20579;-79
2022/10/14 08:06:13;;;;;;;9.40;7.73;;;16.20;99.90;;;;;;5137120;27;20243;-77
2022/10/14 08:08:40;;;;;;;8.93;7.10;;;16.10;99.90;;;;;;5136878;27;20174;-79
2022/10/14 08:11:07;;;;;;;7.97;7.17;;;16.10;99.90;;;;;;5136119;27;20228;-78
2022/10/14 08:13:33;;;;;;;7.70;6.97;;;16.00;99.90;;;;;;5118459;27;20213;-76
2022/10/14 08:15:59;;;;;;;8.17;7.10;;;16.10;99.90;;;;;;5118112;27;20167;-78
2022/10/14 08:18:25;;;;;;;7.70;6.93;;;16.10;99.90;;;;;;5136878;27;20525;-77
2022/10/14 08:20:51;;;;;;;7.63;6.93;;;16.30;99.90;;;;;;5136348;27;20174;-79
2022/10/14 08:23:17;;;;;;;7.60;6.87;;;16.30;99.90;;;;;;5136616;27;20189;-77
2022/10/14 08:25:44;;;;;;;7.47;6.77;;;16.40;99.90;;;;;;5136756;27;20171;-80
2022/10/14 08:28:09;;;;;;;7.50;6.80;;;16.40;99.90;;;;;;5136947;27;20229;-77
2022/10/14 08:30:35;;;;;;;7.70;6.60;;;16.50;99.90;;;;;;5135345;27;20697;-78
2022/10/14 08:33:00;;;;;;;8.03;6.90;;;16.60;99.90;;;;;;5128158;27;20214;-78
2022/10/14 08:35:26;;;;;;;6.90;6.00;;;16.60;99.90;;;;;;5123731;27;20174;-78
2022/10/14 08:37:58;;;;;;;7.43;6.67;;;16.60;99.90;;;;;;5118343;27;20224;-77
2022/10/14 08:40:27;;;;;;;7.27;5.63;;;16.70;99.90;;;;;;5135994;27;20175;-77
2022/10/14 08:43:07;;;;;;;8.20;5.93;;;16.70;99.90;;;;;;5136149;27;20694;-77
2022/10/14 08:45:41;;;;;;;6.13;5.53;;;16.70;99.90;;;;;;5135952;27;20261;-77
2022/10/14 08:48:15;;;;;;;6.47;5.88;;;16.60;99.90;;;;;;5135543;27;20177;-78
2022/10/14 08:51:08;;;;;;;6.90;6.00;;;16.60;99.90;;;;;;5136073;27;20206;-79
2022/10/14 08:53:42;;;;;;;6.23;5.63;;;16.60;99.90;;;;;;5137636;27;20199;-77
2022/10/14 08:56:10;;;;;;;6.67;5.77;;;16.50;99.90;;;;;;5137911;27;20159;-79
2022/10/14 08:58:47;;;;;;;7.37;6.50;;;16.60;99.90;;;;;;5128783;27;20182;-79
2022/10/14 09:01:33;;;;;;;5.87;5.20;;;16.70;99.90;;;;;;5106934;28;20721;-80
2022/10/14 09:04:03;;;;;;;7.13;6.43;;;16.60;99.90;;;;;;5116935;28;20224;-80
2022/10/14 09:06:30;;;;;;;7.37;6.13;;;16.60;99.90;;;;;;5126690;27;20155;-81
2022/10/14 09:09:22;;;;;;;7.37;6.20;;;16.70;99.90;;;;;;5135916;27;20223;-81
2022/10/14 09:12:01;;;;;;;7.90;5.43;;;16.70;99.90;;;;;;5135388;27;20167;-81
2022/10/14 09:14:33;;;;;;;5.23;4.83;;;16.80;99.90;;;;;;5135675;27;20201;-80
2022/10/14 09:17:09;;;;;;;6.37;5.37;;;16.60;99.90;;;;;;5135643;27;20192;-80
2022/10/14 09:19:43;;;;;;;4.80;4.30;;;16.50;99.90;;;;;;5116711;27;20700;-80
2022/10/14 09:22:13;;;;;;;5.75;5.18;;;16.40;99.90;;;;;;5119421;27;20162;-80
2022/10/14 09:24:40;;;;;;;4.60;4.30;;;16.50;99.90;;;;;;5135027;27;20181;-82
2022/10/14 09:27:20;;;;;;;5.60;5.10;;;16.50;99.90;;;;;;5117187;27;20167;-81
2022/10/14 09:29:51;;;;;;;5.97;5.00;;;16.70;99.90;;;;;;5134835;27;20170;-82
2022/10/14 09:32:42;;;;;;;5.63;5.00;;;16.70;99.90;;;;;;5096243;27;20219;-84
2022/10/14 09:35:29;;;;;;;5.47;4.40;;;16.70;99.90;;;;;;5095953;28;20318;-80
2022/10/14 09:37:55;;;;;;;5.97;4.72;;;16.80;99.90;;;;;;5102452;28;20199;-83
2022/10/14 09:40:23;;;;;;;4.20;3.90;;;16.90;99.90;;;;;;5096051;28;20172;-81
2022/10/14 09:42:58;;;;;;;4.55;4.00;;;17.00;99.90;;;;;;5078173;28;20271;-82
2022/10/14 09:45:25;;;;;;;4.43;4.13;;;17.00;99.90;;;;;;5096762;28;20167;-79
2022/10/14 09:47:58;;;;;;;5.47;4.22;;;16.90;99.90;;;;;;5097094;28;20622;-81
2022/10/14 09:50:43;;;;;;;4.47;4.07;;;17.10;99.90;;;;;;5078872;28;20164;-82
2022/10/14 09:53:27;;;;;;;3.33;3.00;;;17.30;99.90;;;;;;5076004;28;20302;-80
2022/10/14 09:55:59;;;;;;;3.97;3.67;;;17.30;99.90;;;;;;5106107;28;20577;-80
2022/10/14 09:58:31;;;;;;;3.80;3.10;;;17.40;99.90;;;;;;5077884;28;20179;-79
2022/10/14 10:00:59;;;;;;;3.70;3.50;;;17.50;99.90;;;;;;5106656;28;20168;-81
2022/10/14 10:03:39;;;;;;;3.58;3.28;;;17.50;99.90;;;;;;5102759;28;20176;-82
2022/10/14 10:06:08;;;;;;;4.80;4.03;;;17.20;99.90;;;;;;5074814;28;20254;-82
2022/10/14 10:08:55;;;;;;;4.10;3.72;;;17.20;99.90;;;;;;5075331;28;20180;-81
2022/10/14 10:11:32;;;;;;;4.00;3.70;;;17.20;99.90;;;;;;5091423;28;20196;-76
2022/10/14 10:13:58;;;;;;;3.88;3.55;;;17.20;99.90;;;;;;5095400;28;20260;-82
2022/10/14 10:16:30;;;;;;;3.72;3.42;;;17.10;99.90;;;;;;5101248;28;20636;-84
2022/10/14 10:18:56;;;;;;;4.23;3.93;;;17.00;99.90;;;;;;5082917;28;20167;-83
2022/10/14 10:21:31;;;;;;;4.80;4.03;;;17.00;99.90;;;;;;5093083;28;20168;-82
2022/10/14 10:24:02;;;;;;;4.25;3.92;;;16.90;99.90;;;;;;5093853;28;20174;-81
2022/10/14 10:26:31;;;;;;;4.75;4.35;;;16.90;99.90;;;;;;5095550;28;20292;-81
2022/10/14 10:29:02;;;;;;;5.37;4.97;;;17.00;99.90;;;;;;5095834;28;20166;-81
2022/10/14 10:32:18;;;;;;;4.90;4.40;;;16.80;99.90;;;;;;5075455;28;20239;-81
2022/10/14 10:35:03;;;;;;;4.63;4.20;;;16.80;99.90;;;;;;4991401;28;20219;-80
2022/10/14 10:37:32;;;;;;;5.15;4.75;;;16.90;99.90;;;;;;4975625;28;20270;-79
2022/10/14 10:40:27;;;;;;;5.38;4.63;;;17.10;99.90;;;;;;4994673;28;20191;-79
2022/10/14 10:43:17;;;;;;;5.45;5.05;;;17.20;99.90;;;;;;4998203;28;20230;-84
2022/10/14 10:45:52;;;;;;;5.67;5.17;;;17.10;99.90;;;;;;4997685;28;20178;-83
2022/10/14 10:48:21;;;;;;;5.03;4.63;;;17.20;99.90;;;;;;4996800;28;20178;-82
2022/10/14 10:50:54;;;;;;;5.87;5.47;;;17.00;99.90;;;;;;4995102;28;20659;-82
2022/10/14 10:53:38;;;;;;;5.23;4.83;;;17.00;99.90;;;;;;4994164;28;20222;-81
2022/10/14 10:56:58;;;;;;;5.93;5.37;;;17.00;99.90;;;;;;5013006;28;20241;-82
2022/10/14 10:59:37;;;;;;;6.20;5.80;;;16.80;99.90;;;;;;4935646;29;20169;-78
2022/10/14 11:02:11;;;;;;;7.37;6.10;;;16.90;99.90;;;;;;4952002;29;20188;-79
2022/10/14 11:04:52;;;;;;;7.87;6.37;;;17.10;99.90;;;;;;4952120;29;20166;-82
2022/10/14 11:13:50;;;;;;;7.40;6.80;;;17.10;99.90;;;;;;5026610;28;20217;-80
2022/10/14 11:16:26;;;;;;;7.22;6.63;;;16.90;99.90;;;;;;5011817;28;20292;-77
2022/10/14 11:19:09;;;;;;;8.57;7.55;;;17.00;99.90;;;;;;5010928;28;20170;-81
2022/10/14 11:21:47;;;;;;;9.95;7.35;;;17.10;99.90;;;;;;5010682;28;20182;-82
2022/10/14 11:24:38;;;;;;;8.98;8.15;;;17.10;99.90;;;;;;5010420;28;20170;-83
2022/10/14 11:27:16;;;;;;;9.30;7.90;;;17.10;99.90;;;;;;4983501;28;20183;-80
2022/10/14 11:30:07;;;;;;;8.63;7.72;;;17.30;99.90;;;;;;5016859;28;20299;-80
2022/10/14 11:32:52;;;;;;;8.88;8.05;;;17.30;99.90;;;;;;5006503;28;20192;-80
2022/10/14 11:35:41;;;;;;;7.45;6.85;;;17.50;99.90;;;;;;5072224;28;20180;-82
2022/10/14 11:38:50;;;;;;;6.90;6.40;;;17.60;99.90;;;;;;5072128;28;20168;-81
2022/10/14 11:41:40;;;;;;;7.50;6.40;;;17.90;99.90;;;;;;4973380;28;20316;-79
2022/10/14 11:44:23;;;;;;;6.00;5.43;;;18.20;99.90;;;;;;4985288;28;20187;-80
2022/10/14 11:46:55;;;;;;;8.75;5.50;;;18.50;99.90;;;;;;5010569;28;20178;-80
2022/10/14 11:49:31;;;;;;;5.60;5.20;;;19.10;99.90;;;;;;5010565;28;20175;-79
2022/10/14 11:52:06;;;;;;;5.75;5.25;;;19.50;99.90;;;;;;5009969;28;20192;-80
2022/10/14 11:54:45;;;;;;;5.85;5.40;;;19.70;99.90;;;;;;5008208;28;20212;-80
2022/10/14 11:57:33;;;;;;;6.47;5.85;;;20.00;99.90;;;;;;5010271;28;20171;-80
2022/10/14 12:00:05;;;;;;;6.30;5.75;;;20.00;99.90;;;;;;5010396;28;20182;-80
2022/10/14 12:02:57;;;;;;;6.15;5.72;;;20.20;99.90;;;;;;5010072;28;20185;-80
2022/10/14 12:05:39;;;;;;;6.72;6.13;;;20.30;99.90;;;;;;5010019;28;20171;-79
2022/10/14 12:08:08;;;;;;;6.65;6.22;;;19.90;99.90;;;;;;5010318;28;20373;-79
2022/10/14 12:10:41;;;;;;;6.88;6.25;;;19.50;99.90;;;;;;5009447;28;20202;-80
2022/10/14 12:13:13;;;;;;;9.38;6.57;;;19.70;99.90;;;;;;5009758;28;20199;-78
2022/10/14 12:15:45;;;;;;;7.78;7.10;;;19.80;99.90;;;;;;5038340;28;20176;-76
2022/10/14 12:18:11;;;;;;;8.50;7.70;;;19.90;99.90;;;;;;5071684;28;20618;-78
2022/10/14 12:20:48;;;;;;;8.48;7.60;;;19.50;99.90;;;;;;5072189;28;20294;-80
2022/10/14 12:23:28;;;;;;;10.63;9.60;;;19.70;99.90;;;;;;5071388;28;20176;-80
2022/10/14 12:26:10;;;;;;;9.77;8.98;;;19.50;99.90;;;;;;5071935;28;20497;-80
2022/10/14 12:28:38;;;;;;;10.60;9.60;;;19.50;99.90;;;;;;5071726;28;20629;-80
2022/10/14 12:31:32;;;;;;;9.95;9.02;;;19.60;99.90;;;;;;5071666;28;20573;-80
2022/10/14 12:34:26;;;;;;;10.65;9.70;;;19.70;99.90;;;;;;5072129;28;20205;-81
2022/10/14 12:36:52;;;;;;;10.70;9.70;;;19.60;99.90;;;;;;5067973;28;20181;-80
2022/10/14 12:39:17;;;;;;;10.98;9.88;;;19.40;99.90;;;;;;5056512;28;20619;-77
2022/10/14 12:42:08;;;;;;;11.02;10.02;;;19.40;99.90;;;;;;5077808;28;20172;-80
2022/10/14 12:44:48;;;;;;;10.73;9.75;;;19.30;99.90;;;;;;5080326;28;20188;-77
2022/10/14 12:47:20;;;;;;;11.15;10.15;;;19.40;99.90;;;;;;5115251;28;20175;-80
2022/10/14 12:49:50;;;;;;;11.27;10.18;;;19.30;99.90;;;;;;5115116;28;20162;-79
2022/10/14 12:52:27;;;;;;;11.90;10.65;;;19.20;99.90;;;;;;5115178;28;20182;-78
2022/10/14 12:54:53;;;;;;;11.25;10.20;;;19.20;99.90;;;;;;5097179;28;20217;-78
2022/10/14 12:57:21;;;;;;;11.70;10.60;;;19.50;99.90;;;;;;5115358;28;20242;-79
2022/10/14 12:59:50;;;;;;;10.85;9.95;;;19.90;99.90;;;;;;5101647;28;20176;-79
2022/10/14 13:02:37;;;;;;;10.73;9.73;;;19.90;99.90;;;;;;5094498;28;20175;-80